createdAt,value
2017-11-06T00:00:11.304Z,89.95
2017-11-06T00:00:37.429Z,90.33
2017-11-06T00:01:03.548Z,90.61
2017-11-06T00:01:29.671Z,90.8
2017-11-06T00:01:55.794Z,91.09
2017-11-06T00:02:21.909Z,91.09
2017-11-06T00:02:48.050Z,90.99
2017-11-06T00:03:14.156Z,91.19
2017-11-06T00:03:40.279Z,90.42
2017-11-06T00:04:06.389Z,90.9
2017-11-06T00:04:32.513Z,90.8
2017-11-06T00:04:58.648Z,90.71
2017-11-06T00:05:24.776Z,90.42
2017-11-06T00:05:50.898Z,90.9
2017-11-06T00:06:17.026Z,90.33
2017-11-06T00:06:43.160Z,90.33
2017-11-06T00:07:09.274Z,90.8
2017-11-06T00:07:35.398Z,90.33
2017-11-06T00:08:01.516Z,90.33
2017-11-06T00:08:27.637Z,90.8
2017-11-06T00:08:53.754Z,90.42
2017-11-06T00:09:19.874Z,90.52
2017-11-06T00:09:45.994Z,90.52
2017-11-06T00:10:12.113Z,90.8
2017-11-06T00:10:38.229Z,90.52
2017-11-06T00:11:04.358Z,90.61
2017-11-06T00:11:30.480Z,90.9
2017-11-06T00:11:56.595Z,89.95
2017-11-06T00:12:22.717Z,90.33
2017-11-06T00:12:48.837Z,90.23
2017-11-06T00:13:14.955Z,90.9
2017-11-06T00:13:41.077Z,90.71
2017-11-06T00:14:07.196Z,90.8
2017-11-06T00:14:33.320Z,90.9
2017-11-06T00:14:59.435Z,90.9
2017-11-06T00:15:25.561Z,90.8
2017-11-06T00:15:51.682Z,90.71
2017-11-06T00:16:17.798Z,90.61
2017-11-06T00:16:43.925Z,90.71
2017-11-06T00:17:10.045Z,90.33
2017-11-06T00:17:36.184Z,90.71
2017-11-06T00:18:02.344Z,90.8
2017-11-06T00:18:28.422Z,90.99
2017-11-06T00:18:54.546Z,90.9
2017-11-06T00:19:20.697Z,91.28
2017-11-06T00:19:46.813Z,91.19
2017-11-06T00:20:12.929Z,91.56
2017-11-06T00:20:39.056Z,91.28
2017-11-06T00:21:05.172Z,91.19
2017-11-06T00:21:31.297Z,91.47
2017-11-06T00:21:57.418Z,91.09
2017-11-06T00:22:23.533Z,90.8
2017-11-06T00:22:49.660Z,91.09
2017-11-06T00:23:15.780Z,91.09
2017-11-06T00:23:41.902Z,90.9
2017-11-06T00:24:08.017Z,91.19
2017-11-06T00:24:34.141Z,91.09
2017-11-06T00:25:00.256Z,91.09
2017-11-06T00:25:26.378Z,91.09
2017-11-06T00:25:52.519Z,90.8
2017-11-06T00:26:18.641Z,90.42
2017-11-06T00:26:44.759Z,90.61
2017-11-06T00:27:10.883Z,90.9
2017-11-06T00:27:36.998Z,90.14
2017-11-06T00:28:03.117Z,90.8
2017-11-06T00:28:29.241Z,90.8
2017-11-06T00:28:55.357Z,90.9
2017-11-06T00:29:21.481Z,90.23
2017-11-06T00:29:47.593Z,90.9
2017-11-06T00:30:13.712Z,90.33
2017-11-06T00:30:39.838Z,90.8
2017-11-06T00:31:05.979Z,90.99
2017-11-06T00:31:32.121Z,90.42
2017-11-06T00:31:58.248Z,91.28
2017-11-06T00:32:24.386Z,90.9
2017-11-06T00:32:50.505Z,90.99
2017-11-06T00:33:16.623Z,91.09
2017-11-06T00:33:42.743Z,90.9
2017-11-06T00:34:08.867Z,91.38
2017-11-06T00:34:34.985Z,91.66
2017-11-06T00:35:01.102Z,91.38
2017-11-06T00:35:27.225Z,91.38
2017-11-06T00:35:53.344Z,91.19
2017-11-06T00:36:19.460Z,90.9
2017-11-06T00:36:45.587Z,91.19
2017-11-06T00:37:11.710Z,90.99
2017-11-06T00:37:37.832Z,91.09
2017-11-06T00:38:03.947Z,90.9
2017-11-06T00:38:30.073Z,91.19
2017-11-06T00:38:56.190Z,91.09
2017-11-06T00:39:22.309Z,90.9
2017-11-06T00:39:48.434Z,90.99
2017-11-06T00:40:14.549Z,91.19
2017-11-06T00:40:40.674Z,91.09
2017-11-06T00:41:06.792Z,91.47
2017-11-06T00:41:32.916Z,91.28
2017-11-06T00:41:59.041Z,91.28
2017-11-06T00:42:25.156Z,91.09
2017-11-06T00:42:51.278Z,91.09
2017-11-06T00:43:17.401Z,90.99
2017-11-06T00:43:43.516Z,91.28
2017-11-06T00:44:09.642Z,91.47
2017-11-06T00:44:35.761Z,91.56
2017-11-06T00:45:01.880Z,91.28
2017-11-06T00:45:28.001Z,91.09
2017-11-06T00:45:54.115Z,91.09
2017-11-06T00:46:20.235Z,91.19
2017-11-06T00:46:46.361Z,91.47
2017-11-06T00:47:12.484Z,91.56
2017-11-06T00:47:38.599Z,90.99
2017-11-06T00:48:04.723Z,90.9
2017-11-06T00:48:30.836Z,90.8
2017-11-06T00:48:56.957Z,90.42
2017-11-06T00:49:23.077Z,90.52
2017-11-06T00:49:49.198Z,90.42
2017-11-06T00:50:15.314Z,90.71
2017-11-06T00:50:41.445Z,90.8
2017-11-06T00:51:07.571Z,90.42
2017-11-06T00:51:33.693Z,91.09
2017-11-06T00:51:59.834Z,90.9
2017-11-06T00:52:25.946Z,90.71
2017-11-06T00:52:52.072Z,90.33
2017-11-06T00:53:18.193Z,90.8
2017-11-06T00:53:44.315Z,90.61
2017-11-06T00:54:10.431Z,90.9
2017-11-06T00:54:36.553Z,90.8
2017-11-06T00:55:02.674Z,90.33
2017-11-06T00:55:28.787Z,90.8
2017-11-06T00:55:54.912Z,90.71
2017-11-06T00:56:21.033Z,90.8
2017-11-06T00:56:47.150Z,90.52
2017-11-06T00:57:13.281Z,90.71
2017-11-06T00:57:39.401Z,90.9
2017-11-06T00:58:05.516Z,90.61
2017-11-06T00:58:31.641Z,90.71
2017-11-06T00:58:57.755Z,90.71
2017-11-06T00:59:23.903Z,90.61
2017-11-06T00:59:49.999Z,90.61
2017-11-06T01:00:16.115Z,90.71
2017-11-06T01:00:42.239Z,90.52
2017-11-06T01:01:08.387Z,90.33
2017-11-06T01:01:34.503Z,91.09
2017-11-06T01:02:00.630Z,90.57
2017-11-06T01:02:26.749Z,90.76
2017-11-06T01:02:52.867Z,90.9
2017-11-06T01:03:18.991Z,91.04
2017-11-06T01:03:45.104Z,91.61
2017-11-06T01:04:11.229Z,91.52
2017-11-06T01:04:37.353Z,91.52
2017-11-06T01:05:03.469Z,91.24
2017-11-06T01:05:29.581Z,91.33
2017-11-06T01:05:55.704Z,91.04
2017-11-06T01:06:21.849Z,91.09
2017-11-06T01:06:47.965Z,91.24
2017-11-06T01:07:14.089Z,91.04
2017-11-06T01:07:40.204Z,91.24
2017-11-06T01:08:06.322Z,91.24
2017-11-06T01:08:32.449Z,91.24
2017-11-06T01:08:58.591Z,91.42
2017-11-06T01:09:24.712Z,91.71
2017-11-06T01:09:50.831Z,91.61
2017-11-06T01:10:16.946Z,91.61
2017-11-06T01:10:43.065Z,91.89
2017-11-06T01:11:09.189Z,91.52
2017-11-06T01:11:35.310Z,91.8
2017-11-06T01:12:01.428Z,91.52
2017-11-06T01:12:27.550Z,91.8
2017-11-06T01:12:53.671Z,91.61
2017-11-06T01:13:19.785Z,91.99
2017-11-06T01:13:45.910Z,91.99
2017-11-06T01:14:12.024Z,91.99
2017-11-06T01:14:38.150Z,92.09
2017-11-06T01:15:04.272Z,91.71
2017-11-06T01:15:30.390Z,91.8
2017-11-06T01:15:56.512Z,91.89
2017-11-06T01:16:22.631Z,91.71
2017-11-06T01:16:48.743Z,91.99
2017-11-06T01:17:14.869Z,92.09
2017-11-06T01:17:40.991Z,91.99
2017-11-06T01:18:07.105Z,91.52
2017-11-06T01:18:33.225Z,92.18
2017-11-06T01:18:59.349Z,92.18
2017-11-06T01:19:25.492Z,91.33
2017-11-06T01:19:51.610Z,91.24
2017-11-06T01:20:17.734Z,91.24
2017-11-06T01:20:43.848Z,91.28
2017-11-06T01:21:09.975Z,91.47
2017-11-06T01:21:36.091Z,91.47
2017-11-06T01:22:02.210Z,91.09
2017-11-06T01:22:28.331Z,90.9
2017-11-06T01:22:54.449Z,91.19
2017-11-06T01:23:20.574Z,90.33
2017-11-06T01:23:46.695Z,90.33
2017-11-06T01:24:12.820Z,90.8
2017-11-06T01:24:38.934Z,90.52
2017-11-06T01:25:05.060Z,90.61
2017-11-06T01:25:31.177Z,90.42
2017-11-06T01:25:57.297Z,90.52
2017-11-06T01:26:23.423Z,90.33
2017-11-06T01:26:49.545Z,90.33
2017-11-06T01:27:15.657Z,90.42
2017-11-06T01:27:41.781Z,90.9
2017-11-06T01:28:07.906Z,90.9
2017-11-06T01:28:34.023Z,90.9
2017-11-06T01:29:00.169Z,90.52
2017-11-06T01:29:26.288Z,90.8
2017-11-06T01:29:52.410Z,90.76
2017-11-06T01:30:18.528Z,90.47
2017-11-06T01:30:44.644Z,90.52
2017-11-06T01:31:10.785Z,90.71
2017-11-06T01:31:36.911Z,90.42
2017-11-06T01:32:03.048Z,90.61
2017-11-06T01:32:29.183Z,90.8
2017-11-06T01:32:55.305Z,90.8
2017-11-06T01:33:21.426Z,90.14
2017-11-06T01:33:47.542Z,90.9
2017-11-06T01:34:13.668Z,90.57
2017-11-06T01:34:39.807Z,90.57
2017-11-06T01:35:05.932Z,90.57
2017-11-06T01:35:32.050Z,90.19
2017-11-06T01:35:58.167Z,90.28
2017-11-06T01:36:24.314Z,91.04
2017-11-06T01:36:50.432Z,90.76
2017-11-06T01:37:16.553Z,90.85
2017-11-06T01:37:42.671Z,90.71
2017-11-06T01:38:08.805Z,90.61
2017-11-06T01:38:34.945Z,90.61
2017-11-06T01:39:01.082Z,90.61
2017-11-06T01:39:27.207Z,90.47
2017-11-06T01:39:53.321Z,90.61
2017-11-06T01:40:19.470Z,90.8
2017-11-06T01:40:45.585Z,90.57
2017-11-06T01:41:11.705Z,90.47
2017-11-06T01:41:37.831Z,90.28
2017-11-06T01:42:03.973Z,90.85
2017-11-06T01:42:30.090Z,90.85
2017-11-06T01:42:56.209Z,91.04
2017-11-06T01:43:22.349Z,91.33
2017-11-06T01:43:48.464Z,91.42
2017-11-06T01:44:14.599Z,91.33
2017-11-06T01:44:40.707Z,91.24
2017-11-06T01:45:06.827Z,91.33
2017-11-06T01:45:32.953Z,91.14
2017-11-06T01:45:59.070Z,91.14
2017-11-06T01:46:25.189Z,91.24
2017-11-06T01:46:51.309Z,91.04
2017-11-06T01:47:17.445Z,91.24
2017-11-06T01:47:43.576Z,91.71
2017-11-06T01:48:09.702Z,91.99
2017-11-06T01:48:35.816Z,91.71
2017-11-06T01:49:01.943Z,91.99
2017-11-06T01:49:28.057Z,91.8
2017-11-06T01:49:54.181Z,91.61
2017-11-06T01:50:20.305Z,91.8
2017-11-06T01:50:46.421Z,91.61
2017-11-06T01:51:12.539Z,91.99
2017-11-06T01:51:38.660Z,91.71
2017-11-06T01:52:04.781Z,92.09
2017-11-06T01:52:30.902Z,92.09
2017-11-06T01:52:57.026Z,91.89
2017-11-06T01:53:23.138Z,91.89
2017-11-06T01:53:49.258Z,91.71
2017-11-06T01:54:15.375Z,91.99
2017-11-06T01:54:41.503Z,91.8
2017-11-06T01:55:07.627Z,91.52
2017-11-06T01:55:33.747Z,91.89
2017-11-06T01:55:59.865Z,91.8
2017-11-06T01:56:25.989Z,91.8
2017-11-06T01:56:52.105Z,91.52
2017-11-06T01:57:18.233Z,91.89
2017-11-06T01:57:44.405Z,91.89
2017-11-06T01:58:10.512Z,91.8
2017-11-06T01:58:36.627Z,91.8
2017-11-06T01:59:02.752Z,91.89
2017-11-06T01:59:28.874Z,91.89
2017-11-06T01:59:55.005Z,91.71
2017-11-06T02:00:21.132Z,91.61
2017-11-06T02:00:47.246Z,91.61
2017-11-06T02:01:13.399Z,91.89
2017-11-06T02:01:39.481Z,91.42
2017-11-06T02:02:05.598Z,91.52
2017-11-06T02:02:31.729Z,92.09
2017-11-06T02:02:57.844Z,91.71
2017-11-06T02:03:23.969Z,92.18
2017-11-06T02:03:50.084Z,92.18
2017-11-06T02:04:16.207Z,91.33
2017-11-06T02:04:42.327Z,91.14
2017-11-06T02:05:08.454Z,91.61
2017-11-06T02:05:34.566Z,91.33
2017-11-06T02:06:00.690Z,91.42
2017-11-06T02:06:26.812Z,91.61
2017-11-06T02:06:52.927Z,91.99
2017-11-06T02:07:19.044Z,91.8
2017-11-06T02:07:45.170Z,91.8
2017-11-06T02:08:11.305Z,91.89
2017-11-06T02:08:37.429Z,92.09
2017-11-06T02:09:03.544Z,92.09
2017-11-06T02:09:29.668Z,91.52
2017-11-06T02:09:55.784Z,91.42
2017-11-06T02:10:21.911Z,91.89
2017-11-06T02:10:48.057Z,91.24
2017-11-06T02:11:14.193Z,91.24
2017-11-06T02:11:40.319Z,91.14
2017-11-06T02:12:06.435Z,91.24
2017-11-06T02:12:32.558Z,91.24
2017-11-06T02:12:58.678Z,91.42
2017-11-06T02:13:24.817Z,91.14
2017-11-06T02:13:50.942Z,91.14
2017-11-06T02:14:17.059Z,90.95
2017-11-06T02:14:43.185Z,90.95
2017-11-06T02:15:09.308Z,91.33
2017-11-06T02:15:35.423Z,90.95
2017-11-06T02:16:01.547Z,91.24
2017-11-06T02:16:27.661Z,91.28
2017-11-06T02:16:53.782Z,91.33
2017-11-06T02:17:19.909Z,91.33
2017-11-06T02:17:46.047Z,91.14
2017-11-06T02:18:12.188Z,91.14
2017-11-06T02:18:38.307Z,91.42
2017-11-06T02:19:04.426Z,91.33
2017-11-06T02:19:30.548Z,91.42
2017-11-06T02:19:56.675Z,91.33
2017-11-06T02:20:22.810Z,91.61
2017-11-06T02:20:48.930Z,91.14
2017-11-06T02:21:15.056Z,91.04
2017-11-06T02:21:41.179Z,90.85
2017-11-06T02:22:07.300Z,90.95
2017-11-06T02:22:33.423Z,91.33
2017-11-06T02:22:59.537Z,91.42
2017-11-06T02:23:25.658Z,91.24
2017-11-06T02:23:51.787Z,91.04
2017-11-06T02:24:17.903Z,91.04
2017-11-06T02:24:44.025Z,91.42
2017-11-06T02:25:10.143Z,91.14
2017-11-06T02:25:36.269Z,91.14
2017-11-06T02:26:02.379Z,91.14
2017-11-06T02:26:28.493Z,91.33
2017-11-06T02:26:54.617Z,91.61
2017-11-06T02:27:20.739Z,91.04
2017-11-06T02:27:46.880Z,91.61
2017-11-06T02:28:12.995Z,91.42
2017-11-06T02:28:39.142Z,91.33
2017-11-06T02:29:05.265Z,91.52
2017-11-06T02:29:31.380Z,91.33
2017-11-06T02:29:57.506Z,91.04
2017-11-06T02:30:23.621Z,90.85
2017-11-06T02:30:49.738Z,91.09
2017-11-06T02:31:15.864Z,90.9
2017-11-06T02:31:41.985Z,90.9
2017-11-06T02:32:08.100Z,91.09
2017-11-06T02:32:34.226Z,90.8
2017-11-06T02:33:00.343Z,90.9
2017-11-06T02:33:26.460Z,90.76
2017-11-06T02:33:52.621Z,90.76
2017-11-06T02:34:18.727Z,91.19
2017-11-06T02:34:44.843Z,90.85
2017-11-06T02:35:10.969Z,90.33
2017-11-06T02:35:37.085Z,90.52
2017-11-06T02:36:03.203Z,90.71
2017-11-06T02:36:29.325Z,90.9
2017-11-06T02:36:55.449Z,90.33
2017-11-06T02:37:21.564Z,90.85
2017-11-06T02:37:47.684Z,90.8
2017-11-06T02:38:13.808Z,90.42
2017-11-06T02:38:39.924Z,90.38
2017-11-06T02:39:06.067Z,90.47
2017-11-06T02:39:32.187Z,90.57
2017-11-06T02:39:58.306Z,90.76
2017-11-06T02:40:24.436Z,90.85
2017-11-06T02:40:50.552Z,90.66
2017-11-06T02:41:16.677Z,91.14
2017-11-06T02:41:42.806Z,91.04
2017-11-06T02:42:08.921Z,90.85
2017-11-06T02:42:35.044Z,91.04
2017-11-06T02:43:01.161Z,90.76
2017-11-06T02:43:27.298Z,91.04
2017-11-06T02:43:53.417Z,91.42
2017-11-06T02:44:19.536Z,91.04
2017-11-06T02:44:45.658Z,91.14
2017-11-06T02:45:11.775Z,91.04
2017-11-06T02:45:37.905Z,91.24
2017-11-06T02:46:04.021Z,91.14
2017-11-06T02:46:30.146Z,91.61
2017-11-06T02:46:56.259Z,91.89
2017-11-06T02:47:22.373Z,91.89
2017-11-06T02:47:48.500Z,91.61
2017-11-06T02:48:14.617Z,91.8
2017-11-06T02:48:40.736Z,91.8
2017-11-06T02:49:06.861Z,91.61
2017-11-06T02:49:32.974Z,91.8
2017-11-06T02:49:59.099Z,91.8
2017-11-06T02:50:25.219Z,91.99
2017-11-06T02:50:51.343Z,92.09
2017-11-06T02:51:17.461Z,91.99
2017-11-06T02:51:43.576Z,92.09
2017-11-06T02:52:09.701Z,91.42
2017-11-06T02:52:35.817Z,91.89
2017-11-06T02:53:01.937Z,91.61
2017-11-06T02:53:28.067Z,91.61
2017-11-06T02:53:54.177Z,91.61
2017-11-06T02:54:20.303Z,91.61
2017-11-06T02:54:46.415Z,91.71
2017-11-06T02:55:12.537Z,91.8
2017-11-06T02:55:38.667Z,91.61
2017-11-06T02:56:04.779Z,91.71
2017-11-06T02:56:30.903Z,92.09
2017-11-06T02:56:57.041Z,91.89
2017-11-06T02:57:23.166Z,91.99
2017-11-06T02:57:49.286Z,91.8
2017-11-06T02:58:15.399Z,91.8
2017-11-06T02:58:41.523Z,92.18
2017-11-06T02:59:07.641Z,91.42
2017-11-06T02:59:33.767Z,91.52
2017-11-06T02:59:59.898Z,91.71
2017-11-06T03:00:26.021Z,91.52
2017-11-06T03:00:52.141Z,91.8
2017-11-06T03:01:18.259Z,91.61
2017-11-06T03:01:44.383Z,92.18
2017-11-06T03:02:10.498Z,91.14
2017-11-06T03:02:36.721Z,91.52
2017-11-06T03:03:02.844Z,91.71
2017-11-06T03:03:28.967Z,91.33
2017-11-06T03:03:55.079Z,91.24
2017-11-06T03:04:21.202Z,91.24
2017-11-06T03:04:47.347Z,91.42
2017-11-06T03:05:13.472Z,91.42
2017-11-06T03:05:39.595Z,91.14
2017-11-06T03:06:05.711Z,91.14
2017-11-06T03:06:31.828Z,90.95
2017-11-06T03:06:57.948Z,91.04
2017-11-06T03:07:24.064Z,90.85
2017-11-06T03:07:50.182Z,90.85
2017-11-06T03:08:16.303Z,91.14
2017-11-06T03:08:42.425Z,91.42
2017-11-06T03:09:08.538Z,91.24
2017-11-06T03:09:34.658Z,91.14
2017-11-06T03:10:00.777Z,91.04
2017-11-06T03:10:26.898Z,90.85
2017-11-06T03:10:53.024Z,91.04
2017-11-06T03:11:19.139Z,91.14
2017-11-06T03:11:45.262Z,91.14
2017-11-06T03:12:11.382Z,91.14
2017-11-06T03:12:37.501Z,91.14
2017-11-06T03:13:03.629Z,91.24
2017-11-06T03:13:29.748Z,91.42
2017-11-06T03:13:55.862Z,91.24
2017-11-06T03:14:21.980Z,91.52
2017-11-06T03:14:48.102Z,91.42
2017-11-06T03:15:14.219Z,91.61
2017-11-06T03:15:40.341Z,91.61
2017-11-06T03:16:06.456Z,91.89
2017-11-06T03:16:32.581Z,91.89
2017-11-06T03:16:58.697Z,91.61
2017-11-06T03:17:24.819Z,91.52
2017-11-06T03:17:50.946Z,91.33
2017-11-06T03:18:17.062Z,91.24
2017-11-06T03:18:43.183Z,91.24
2017-11-06T03:19:09.304Z,91.71
2017-11-06T03:19:35.421Z,91.99
2017-11-06T03:20:01.548Z,91.61
2017-11-06T03:20:27.667Z,91.52
2017-11-06T03:20:53.787Z,91.71
2017-11-06T03:21:19.916Z,91.71
2017-11-06T03:21:46.033Z,91.61
2017-11-06T03:22:12.147Z,91.61
2017-11-06T03:22:38.275Z,91.52
2017-11-06T03:23:04.391Z,91.89
2017-11-06T03:23:30.517Z,91.52
2017-11-06T03:23:56.637Z,91.8
2017-11-06T03:24:22.753Z,91.71
2017-11-06T03:24:48.877Z,92.37
2017-11-06T03:25:14.990Z,92.18
2017-11-06T03:25:41.111Z,92.18
2017-11-06T03:26:07.236Z,92.18
2017-11-06T03:26:33.357Z,92.56
2017-11-06T03:26:59.486Z,92.85
2017-11-06T03:27:25.630Z,92.37
2017-11-06T03:27:51.742Z,92.18
2017-11-06T03:28:17.866Z,92.18
2017-11-06T03:28:43.981Z,92.75
2017-11-06T03:29:10.125Z,92.18
2017-11-06T03:29:36.258Z,92.37
2017-11-06T03:30:02.384Z,92.47
2017-11-06T03:30:28.497Z,92.66
2017-11-06T03:30:54.638Z,92.37
2017-11-06T03:31:20.760Z,92.09
2017-11-06T03:31:46.876Z,92.47
2017-11-06T03:32:12.997Z,92.28
2017-11-06T03:32:39.118Z,92.37
2017-11-06T03:33:05.240Z,92.47
2017-11-06T03:33:31.355Z,92.37
2017-11-06T03:33:57.475Z,92.47
2017-11-06T03:34:23.591Z,92.18
2017-11-06T03:34:49.709Z,92.37
2017-11-06T03:35:15.838Z,92.09
2017-11-06T03:35:41.957Z,92.37
2017-11-06T03:36:08.082Z,92.37
2017-11-06T03:36:34.194Z,92.18
2017-11-06T03:37:00.320Z,92.09
2017-11-06T03:37:26.435Z,92.18
2017-11-06T03:37:52.551Z,92.09
2017-11-06T03:38:18.681Z,92.09
2017-11-06T03:38:44.809Z,91.99
2017-11-06T03:39:10.929Z,92.18
2017-11-06T03:39:37.053Z,92.09
2017-11-06T03:40:03.171Z,92.37
2017-11-06T03:40:29.286Z,92.37
2017-11-06T03:40:55.413Z,91.52
2017-11-06T03:41:21.548Z,91.52
2017-11-06T03:41:47.672Z,91.8
2017-11-06T03:42:13.812Z,91.8
2017-11-06T03:42:39.933Z,91.8
2017-11-06T03:43:06.057Z,91.89
2017-11-06T03:43:32.173Z,91.71
2017-11-06T03:43:58.304Z,91.61
2017-11-06T03:44:24.431Z,91.61
2017-11-06T03:44:50.539Z,91.61
2017-11-06T03:45:16.658Z,91.8
2017-11-06T03:45:42.779Z,91.71
2017-11-06T03:46:08.895Z,91.89
2017-11-06T03:46:35.021Z,91.8
2017-11-06T03:47:01.137Z,91.52
2017-11-06T03:47:27.256Z,92.56
2017-11-06T03:47:53.378Z,92.37
2017-11-06T03:48:19.496Z,92.47
2017-11-06T03:48:45.622Z,92.37
2017-11-06T03:49:11.742Z,92.75
2017-11-06T03:49:37.866Z,92.8
2017-11-06T03:50:03.984Z,92.75
2017-11-06T03:50:30.102Z,92.75
2017-11-06T03:50:56.228Z,92.85
2017-11-06T03:51:22.348Z,92.9
2017-11-06T03:51:48.464Z,92.94
2017-11-06T03:52:14.582Z,92.66
2017-11-06T03:52:40.697Z,92.9
2017-11-06T03:53:06.817Z,92.61
2017-11-06T03:53:32.940Z,92.42
2017-11-06T03:53:59.060Z,92.52
2017-11-06T03:54:25.180Z,92.56
2017-11-06T03:54:51.316Z,92.56
2017-11-06T03:55:17.442Z,92.94
2017-11-06T03:55:43.563Z,92.94
2017-11-06T03:56:09.678Z,92.71
2017-11-06T03:56:35.801Z,92.9
2017-11-06T03:57:01.923Z,92.9
2017-11-06T03:57:28.039Z,93.32
2017-11-06T03:57:54.163Z,93.32
2017-11-06T03:58:20.296Z,92.56
2017-11-06T03:58:46.418Z,93.32
2017-11-06T03:59:12.538Z,92.56
2017-11-06T03:59:38.658Z,92.75
2017-11-06T04:00:04.773Z,92.71
2017-11-06T04:00:30.892Z,92.71
2017-11-06T04:00:57.017Z,92.9
2017-11-06T04:01:23.133Z,92.42
2017-11-06T04:01:49.258Z,92.52
2017-11-06T04:02:15.378Z,92.61
2017-11-06T04:02:41.493Z,93.37
2017-11-06T04:03:07.645Z,92.52
2017-11-06T04:03:33.737Z,93.18
2017-11-06T04:03:59.861Z,93.27
2017-11-06T04:04:25.993Z,92.99
2017-11-06T04:04:52.098Z,93.08
2017-11-06T04:05:18.212Z,92.61
2017-11-06T04:05:44.337Z,92.71
2017-11-06T04:06:10.476Z,93.18
2017-11-06T04:06:36.597Z,92.9
2017-11-06T04:07:02.721Z,92.99
2017-11-06T04:07:28.839Z,93.08
2017-11-06T04:07:54.958Z,92.8
2017-11-06T04:08:21.072Z,93.56
2017-11-06T04:08:47.197Z,93.27
2017-11-06T04:09:13.320Z,92.71
2017-11-06T04:09:39.435Z,93.56
2017-11-06T04:10:05.559Z,93.37
2017-11-06T04:10:31.676Z,93.37
2017-11-06T04:10:57.799Z,93.37
2017-11-06T04:11:23.914Z,93.46
2017-11-06T04:11:50.033Z,93.27
2017-11-06T04:12:16.172Z,93.65
2017-11-06T04:12:42.292Z,93.18
2017-11-06T04:13:08.431Z,93.08
2017-11-06T04:13:34.553Z,93.56
2017-11-06T04:14:00.670Z,93.56
2017-11-06T04:14:26.795Z,93.18
2017-11-06T04:14:52.908Z,93.37
2017-11-06T04:15:19.037Z,93.18
2017-11-06T04:15:45.155Z,93.18
2017-11-06T04:16:11.277Z,93.75
2017-11-06T04:16:37.390Z,93.56
2017-11-06T04:17:03.512Z,93.46
2017-11-06T04:17:29.638Z,93.84
2017-11-06T04:17:55.764Z,93.75
2017-11-06T04:18:21.875Z,94.13
2017-11-06T04:18:47.992Z,94.03
2017-11-06T04:19:14.136Z,94.23
2017-11-06T04:19:40.252Z,94.03
2017-11-06T04:20:06.377Z,94.42
2017-11-06T04:20:32.496Z,94.13
2017-11-06T04:20:58.636Z,94.13
2017-11-06T04:21:24.761Z,94.13
2017-11-06T04:21:50.877Z,93.94
2017-11-06T04:22:17.000Z,93.27
2017-11-06T04:22:43.115Z,93.75
2017-11-06T04:23:09.230Z,93.08
2017-11-06T04:23:35.352Z,93.27
2017-11-06T04:24:01.472Z,93.37
2017-11-06T04:24:27.590Z,93.37
2017-11-06T04:24:53.706Z,93.37
2017-11-06T04:25:19.829Z,93.27
2017-11-06T04:25:45.950Z,93.46
2017-11-06T04:26:12.073Z,93.56
2017-11-06T04:26:38.195Z,93.84
2017-11-06T04:27:04.311Z,93.27
2017-11-06T04:27:30.429Z,93.94
2017-11-06T04:27:56.549Z,93.84
2017-11-06T04:28:22.668Z,94.13
2017-11-06T04:28:48.791Z,94.32
2017-11-06T04:29:14.912Z,94.51
2017-11-06T04:29:41.028Z,94.51
2017-11-06T04:30:07.140Z,94.51
2017-11-06T04:30:33.262Z,94.32
2017-11-06T04:30:59.376Z,94.51
2017-11-06T04:31:25.501Z,94.32
2017-11-06T04:31:51.623Z,94.03
2017-11-06T04:32:17.736Z,94.23
2017-11-06T04:32:43.856Z,94.32
2017-11-06T04:33:09.979Z,94.03
2017-11-06T04:33:36.094Z,94.42
2017-11-06T04:34:02.220Z,94.32
2017-11-06T04:34:28.340Z,94.42
2017-11-06T04:34:54.455Z,94.13
2017-11-06T04:35:20.578Z,94.13
2017-11-06T04:35:46.693Z,94.03
2017-11-06T04:36:12.814Z,94.13
2017-11-06T04:36:38.939Z,94.13
2017-11-06T04:37:05.054Z,94.42
2017-11-06T04:37:31.174Z,94.42
2017-11-06T04:37:57.292Z,94.23
2017-11-06T04:38:23.411Z,93.94
2017-11-06T04:38:49.533Z,93.27
2017-11-06T04:39:15.682Z,93.46
2017-11-06T04:39:41.820Z,93.65
2017-11-06T04:40:07.942Z,93.75
2017-11-06T04:40:34.064Z,93.37
2017-11-06T04:41:00.179Z,93.18
2017-11-06T04:41:26.306Z,93.56
2017-11-06T04:41:52.425Z,93.27
2017-11-06T04:42:18.545Z,92.99
2017-11-06T04:42:44.660Z,93.27
2017-11-06T04:43:10.784Z,93.56
2017-11-06T04:43:36.896Z,93.75
2017-11-06T04:44:03.012Z,93.75
2017-11-06T04:44:29.155Z,93.27
2017-11-06T04:44:55.273Z,93.65
2017-11-06T04:45:21.403Z,93.08
2017-11-06T04:45:47.524Z,93.08
2017-11-06T04:46:13.639Z,93.08
2017-11-06T04:46:39.761Z,93.56
2017-11-06T04:47:05.882Z,93.56
2017-11-06T04:47:31.997Z,92.9
2017-11-06T04:47:58.121Z,92.71
2017-11-06T04:48:24.235Z,92.99
2017-11-06T04:48:50.349Z,93.46
2017-11-06T04:49:16.473Z,93.27
2017-11-06T04:49:42.597Z,92.9
2017-11-06T04:50:08.713Z,93.18
2017-11-06T04:50:34.837Z,93.18
2017-11-06T04:51:00.954Z,93.56
2017-11-06T04:51:27.074Z,93.18
2017-11-06T04:51:53.220Z,93.27
2017-11-06T04:52:19.329Z,92.71
2017-11-06T04:52:45.448Z,92.9
2017-11-06T04:53:11.573Z,92.9
2017-11-06T04:53:37.694Z,92.99
2017-11-06T04:54:03.809Z,92.9
2017-11-06T04:54:29.934Z,93.08
2017-11-06T04:54:56.053Z,92.61
2017-11-06T04:55:22.189Z,93.08
2017-11-06T04:55:48.310Z,93.27
2017-11-06T04:56:14.428Z,92.71
2017-11-06T04:56:40.548Z,92.99
2017-11-06T04:57:06.669Z,92.9
2017-11-06T04:57:32.794Z,93.18
2017-11-06T04:57:58.911Z,93.27
2017-11-06T04:58:25.030Z,92.99
2017-11-06T04:58:51.157Z,93.27
2017-11-06T04:59:17.272Z,92.99
2017-11-06T04:59:43.396Z,92.99
2017-11-06T05:00:09.514Z,92.9
2017-11-06T05:00:35.632Z,92.99
2017-11-06T05:01:01.756Z,92.71
2017-11-06T05:01:27.876Z,93.08
2017-11-06T05:01:53.990Z,92.9
2017-11-06T05:02:20.114Z,92.99
2017-11-06T05:02:46.238Z,93.08
2017-11-06T05:03:12.352Z,93.18
2017-11-06T05:03:38.475Z,92.71
2017-11-06T05:04:04.589Z,92.71
2017-11-06T05:04:30.712Z,92.52
2017-11-06T05:04:56.835Z,92.99
2017-11-06T05:05:22.951Z,93.37
2017-11-06T05:05:49.086Z,92.99
2017-11-06T05:06:15.196Z,93.27
2017-11-06T05:06:41.310Z,92.71
2017-11-06T05:07:07.433Z,92.52
2017-11-06T05:07:33.556Z,92.33
2017-11-06T05:07:59.671Z,92.61
2017-11-06T05:08:25.787Z,92.71
2017-11-06T05:08:51.905Z,92.52
2017-11-06T05:09:18.021Z,92.61
2017-11-06T05:09:44.148Z,92.61
2017-11-06T05:10:10.278Z,92.61
2017-11-06T05:10:36.396Z,92.56
2017-11-06T05:11:02.518Z,92.56
2017-11-06T05:11:28.695Z,92.61
2017-11-06T05:11:54.807Z,92.47
2017-11-06T05:12:20.926Z,92.37
2017-11-06T05:12:47.050Z,92.18
2017-11-06T05:13:13.172Z,92.18
2017-11-06T05:13:39.286Z,92.47
2017-11-06T05:14:05.408Z,92.37
2017-11-06T05:14:31.527Z,92.66
2017-11-06T05:14:57.651Z,92.75
2017-11-06T05:15:23.762Z,92.09
2017-11-06T05:15:49.881Z,92.66
2017-11-06T05:16:15.999Z,92.85
2017-11-06T05:16:42.124Z,92.94
2017-11-06T05:17:08.256Z,92.94
2017-11-06T05:17:34.380Z,92.61
2017-11-06T05:18:00.495Z,92.47
2017-11-06T05:18:26.619Z,92.66
2017-11-06T05:18:52.746Z,92.47
2017-11-06T05:19:18.859Z,92.71
2017-11-06T05:19:44.985Z,92.71
2017-11-06T05:20:11.104Z,92.71
2017-11-06T05:20:37.226Z,92.52
2017-11-06T05:21:03.340Z,93.32
2017-11-06T05:21:29.458Z,93.41
2017-11-06T05:21:55.585Z,93.23
2017-11-06T05:22:21.701Z,93.27
2017-11-06T05:22:47.821Z,93.32
2017-11-06T05:23:13.937Z,93.23
2017-11-06T05:23:40.058Z,93.32
2017-11-06T05:24:06.177Z,93.23
2017-11-06T05:24:32.299Z,93.32
2017-11-06T05:24:58.420Z,93.23
2017-11-06T05:25:24.542Z,93.13
2017-11-06T05:25:50.663Z,93.32
2017-11-06T05:26:16.782Z,93.13
2017-11-06T05:26:42.910Z,92.66
2017-11-06T05:27:09.027Z,92.75
2017-11-06T05:27:35.144Z,92.75
2017-11-06T05:28:01.259Z,92.37
2017-11-06T05:28:27.381Z,92.47
2017-11-06T05:28:53.507Z,92.75
2017-11-06T05:29:19.619Z,92.75
2017-11-06T05:29:45.737Z,92.75
2017-11-06T05:30:11.862Z,92.75
2017-11-06T05:30:38.002Z,92.56
2017-11-06T05:31:04.130Z,92.56
2017-11-06T05:31:30.248Z,92.56
2017-11-06T05:31:56.367Z,92.66
2017-11-06T05:32:22.491Z,92.56
2017-11-06T05:32:48.602Z,92.56
2017-11-06T05:33:14.729Z,92.56
2017-11-06T05:33:40.847Z,92.66
2017-11-06T05:34:06.964Z,92.94
2017-11-06T05:34:33.102Z,92.47
2017-11-06T05:34:59.238Z,92.37
2017-11-06T05:35:25.353Z,92.47
2017-11-06T05:35:51.470Z,92.47
2017-11-06T05:36:17.584Z,92.37
2017-11-06T05:36:43.715Z,92.56
2017-11-06T05:37:09.837Z,92.37
2017-11-06T05:37:35.957Z,92.37